sensor_id;sensor_type;location;lat;lon;timestamp;temperature;humidity
34099;DHT22;20374;49.474;10.944;2023-03-01T00:01:26;-2.20;99.90
34099;DHT22;20374;49.474;10.944;2023-03-01T00:03:52;-2.20;99.90
34099;DHT22;20374;49.474;10.944;2023-03-01T00:06:19;-2.20;99.90
34099;DHT22;20374;49.474;10.944;2023-03-01T00:08:45;-2.20;99.90
34099;DHT22;20374;49.474;10.944;2023-03-01T00:11:21;-2.20;99.90
34099;DHT22;20374;49.474;10.944;2023-03-01T00:13:49;-2.20;99.90
34099;DHT22;20374;49.474;10.944;2023-03-01T00:16:21;-2.20;99.90
34099;DHT22;20374;49.474;10.944;2023-03-01T00:18:48;-2.30;99.90
34099;DHT22;20374;49.474;10.944;2023-03-01T00:21:14;-2.30;99.90
34099;DHT22;20374;49.474;10.944;2023-03-01T00:23:40;-2.30;99.90
34099;DHT22;20374;49.474;10.944;2023-03-01T00:26:08;-2.30;99.90
34099;DHT22;20374;49.474;10.944;2023-03-01T00:28:36;-2.30;99.90
34099;DHT22;20374;49.474;10.944;2023-03-01T00:31:08;-2.30;99.90
34099;DHT22;20374;49.474;10.944;2023-03-01T00:33:34;-2.30;99.90
34099;DHT22;20374;49.474;10.944;2023-03-01T00:36:01;-2.40;99.90
34099;DHT22;20374;49.474;10.944;2023-03-01T00:38:27;-2.40;99.90
34099;DHT22;20374;49.474;10.944;2023-03-01T00:40:53;-2.40;99.90
34099;DHT22;20374;49.474;10.944;2023-03-01T00:43:19;-2.50;99.90
34099;DHT22;20374;49.474;10.944;2023-03-01T00:45:45;-2.50;99.90
34099;DHT22;20374;49.474;10.944;2023-03-01T00:48:11;-2.50;99.90
34099;DHT22;20374;49.474;10.944;2023-03-01T00:50:37;-2.50;99.90
34099;DHT22;20374;49.474;10.944;2023-03-01T00:53:03;-2.60;99.90
34099;DHT22;20374;49.474;10.944;2023-03-01T00:55:30;-2.60;99.90
34099;DHT22;20374;49.474;10.944;2023-03-01T00:57:56;-2.50;99.90
34099;DHT22;20374;49.474;10.944;2023-03-01T01:00:22;-2.50;99.90
34099;DHT22;20374;49.474;10.944;2023-03-01T01:02:48;-2.60;99.90
34099;DHT22;20374;49.474;10.944;2023-03-01T01:05:15;-2.60;99.90
34099;DHT22;20374;49.474;10.944;2023-03-01T01:07:47;-2.60;99.90
34099;DHT22;20374;49.474;10.944;2023-03-01T01:10:13;-2.60;99.90
34099;DHT22;20374;49.474;10.944;2023-03-01T01:12:45;-2.60;99.90
34099;DHT22;20374;49.474;10.944;2023-03-01T01:15:11;-2.70;99.90
34099;DHT22;20374;49.474;10.944;2023-03-01T01:17:39;-2.60;99.90
34099;DHT22;20374;49.474;10.944;2023-03-01T01:20:06;-2.60;99.90
34099;DHT22;20374;49.474;10.944;2023-03-01T01:22:33;-2.60;99.90
34099;DHT22;20374;49.474;10.944;2023-03-01T01:24:58;-2.70;99.90
34099;DHT22;20374;49.474;10.944;2023-03-01T01:27:24;-2.70;99.90
34099;DHT22;20374;49.474;10.944;2023-03-01T01:29:52;-2.60;99.90
34099;DHT22;20374;49.474;10.944;2023-03-01T01:32:18;-2.70;99.90
34099;DHT22;20374;49.474;10.944;2023-03-01T01:34:44;-2.70;99.90
34099;DHT22;20374;49.474;10.944;2023-03-01T01:37:12;-2.70;99.90
34099;DHT22;20374;49.474;10.944;2023-03-01T01:39:38;-2.70;99.90
34099;DHT22;20374;49.474;10.944;2023-03-01T01:42:04;-2.80;99.90
34099;DHT22;20374;49.474;10.944;2023-03-01T01:44:30;-2.80;99.90
34099;DHT22;20374;49.474;10.944;2023-03-01T01:47:05;-2.80;99.90
34099;DHT22;20374;49.474;10.944;2023-03-01T01:52:16;-2.90;99.90
34099;DHT22;20374;49.474;10.944;2023-03-01T01:54:50;-2.90;99.90
34099;DHT22;20374;49.474;10.944;2023-03-01T01:57:27;-2.90;99.90
34099;DHT22;20374;49.474;10.944;2023-03-01T01:59:57;-2.90;99.90
34099;DHT22;20374;49.474;10.944;2023-03-01T02:02:25;-2.90;99.90
34099;DHT22;20374;49.474;10.944;2023-03-01T02:05:00;-2.90;99.90
34099;DHT22;20374;49.474;10.944;2023-03-01T02:07:29;-2.90;99.90
34099;DHT22;20374;49.474;10.944;2023-03-01T02:09:56;-2.90;99.90
34099;DHT22;20374;49.474;10.944;2023-03-01T02:12:24;-2.90;99.90
34099;DHT22;20374;49.474;10.944;2023-03-01T02:14:50;-2.90;99.90
34099;DHT22;20374;49.474;10.944;2023-03-01T02:17:17;-3.00;99.90
34099;DHT22;20374;49.474;10.944;2023-03-01T02:22:37;-3.00;99.90
34099;DHT22;20374;49.474;10.944;2023-03-01T02:30:30;-3.10;99.90
34099;DHT22;20374;49.474;10.944;2023-03-01T02:32:57;-3.00;99.90
34099;DHT22;20374;49.474;10.944;2023-03-01T02:35:32;-3.00;99.90
34099;DHT22;20374;49.474;10.944;2023-03-01T02:38:00;-3.00;99.90
34099;DHT22;20374;49.474;10.944;2023-03-01T02:40:29;-3.00;99.90
34099;DHT22;20374;49.474;10.944;2023-03-01T02:42:58;-3.00;99.90
34099;DHT22;20374;49.474;10.944;2023-03-01T02:45:26;-2.90;99.90
34099;DHT22;20374;49.474;10.944;2023-03-01T02:47:56;-2.90;99.90
34099;DHT22;20374;49.474;10.944;2023-03-01T02:55:24;-2.90;99.90
34099;DHT22;20374;49.474;10.944;2023-03-01T02:57:50;-2.90;99.90
34099;DHT22;20374;49.474;10.944;2023-03-01T03:00:24;-3.00;99.90
34099;DHT22;20374;49.474;10.944;2023-03-01T03:02:53;-3.00;99.90
34099;DHT22;20374;49.474;10.944;2023-03-01T03:05:24;-3.10;99.90
34099;DHT22;20374;49.474;10.944;2023-03-01T03:07:54;-3.10;99.90
34099;DHT22;20374;49.474;10.944;2023-03-01T03:10:24;-3.10;99.90
34099;DHT22;20374;49.474;10.944;2023-03-01T03:12:52;-3.20;99.90
34099;DHT22;20374;49.474;10.944;2023-03-01T03:15:19;-3.20;99.90
34099;DHT22;20374;49.474;10.944;2023-03-01T03:17:46;-3.20;99.90
34099;DHT22;20374;49.474;10.944;2023-03-01T03:20:15;-3.20;99.90
34099;DHT22;20374;49.474;10.944;2023-03-01T03:22:52;-3.30;99.90
34099;DHT22;20374;49.474;10.944;2023-03-01T03:25:20;-3.30;99.90
34099;DHT22;20374;49.474;10.944;2023-03-01T03:27:48;-3.30;99.90
34099;DHT22;20374;49.474;10.944;2023-03-01T03:30:19;-3.30;99.90
34099;DHT22;20374;49.474;10.944;2023-03-01T03:32:47;-3.40;99.90
34099;DHT22;20374;49.474;10.944;2023-03-01T03:35:26;-3.40;99.90
34099;DHT22;20374;49.474;10.944;2023-03-01T03:37:53;-3.40;99.90
34099;DHT22;20374;49.474;10.944;2023-03-01T03:40:33;-3.40;99.90
34099;DHT22;20374;49.474;10.944;2023-03-01T03:42:59;-3.50;99.90
34099;DHT22;20374;49.474;10.944;2023-03-01T03:45:25;-3.50;99.90
34099;DHT22;20374;49.474;10.944;2023-03-01T03:47:51;-3.50;99.90
34099;DHT22;20374;49.474;10.944;2023-03-01T03:50:18;-3.50;99.90
34099;DHT22;20374;49.474;10.944;2023-03-01T03:52:44;-3.50;99.90
34099;DHT22;20374;49.474;10.944;2023-03-01T03:55:11;-3.60;99.90
34099;DHT22;20374;49.474;10.944;2023-03-01T03:57:39;-3.60;99.90
34099;DHT22;20374;49.474;10.944;2023-03-01T04:00:06;-3.50;99.90
34099;DHT22;20374;49.474;10.944;2023-03-01T04:02:39;-3.60;99.90
34099;DHT22;20374;49.474;10.944;2023-03-01T04:05:06;-3.60;99.90
34099;DHT22;20374;49.474;10.944;2023-03-01T04:07:32;-3.60;99.90
34099;DHT22;20374;49.474;10.944;2023-03-01T04:09:58;-3.50;99.90
34099;DHT22;20374;49.474;10.944;2023-03-01T04:12:24;-3.60;99.90
34099;DHT22;20374;49.474;10.944;2023-03-01T04:14:50;-3.60;99.90
34099;DHT22;20374;49.474;10.944;2023-03-01T04:17:15;-3.60;99.90
34099;DHT22;20374;49.474;10.944;2023-03-01T04:19:41;-3.70;99.90
34099;DHT22;20374;49.474;10.944;2023-03-01T04:22:09;-3.70;99.90
34099;DHT22;20374;49.474;10.944;2023-03-01T04:24:36;-3.70;99.90
34099;DHT22;20374;49.474;10.944;2023-03-01T04:27:02;-3.70;99.90
34099;DHT22;20374;49.474;10.944;2023-03-01T04:29:28;-3.80;99.90
34099;DHT22;20374;49.474;10.944;2023-03-01T04:31:54;-3.70;99.90
34099;DHT22;20374;49.474;10.944;2023-03-01T04:34:20;-3.80;99.90
34099;DHT22;20374;49.474;10.944;2023-03-01T04:36:46;-3.70;99.90
34099;DHT22;20374;49.474;10.944;2023-03-01T04:39:12;-3.70;99.90
34099;DHT22;20374;49.474;10.944;2023-03-01T04:41:38;-3.70;99.90
34099;DHT22;20374;49.474;10.944;2023-03-01T04:44:05;-3.70;99.90
34099;DHT22;20374;49.474;10.944;2023-03-01T04:46:32;-3.70;99.90
34099;DHT22;20374;49.474;10.944;2023-03-01T04:48:58;-3.70;99.90
34099;DHT22;20374;49.474;10.944;2023-03-01T04:51:24;-3.70;99.90
34099;DHT22;20374;49.474;10.944;2023-03-01T04:53:50;-3.70;99.90
34099;DHT22;20374;49.474;10.944;2023-03-01T04:56:16;-3.70;99.90
34099;DHT22;20374;49.474;10.944;2023-03-01T04:58:44;-3.60;99.90
34099;DHT22;20374;49.474;10.944;2023-03-01T05:01:14;-3.60;99.90
34099;DHT22;20374;49.474;10.944;2023-03-01T05:03:46;-3.60;99.90
34099;DHT22;20374;49.474;10.944;2023-03-01T05:06:12;-3.60;99.90
34099;DHT22;20374;49.474;10.944;2023-03-01T05:08:39;-3.60;99.90
34099;DHT22;20374;49.474;10.944;2023-03-01T05:11:05;-3.60;99.90
34099;DHT22;20374;49.474;10.944;2023-03-01T05:13:38;-3.70;99.90
34099;DHT22;20374;49.474;10.944;2023-03-01T05:16:05;-3.70;99.90
34099;DHT22;20374;49.474;10.944;2023-03-01T05:18:33;-3.70;99.90
34099;DHT22;20374;49.474;10.944;2023-03-01T05:21:05;-3.70;99.90
34099;DHT22;20374;49.474;10.944;2023-03-01T05:23:32;-3.80;99.90
34099;DHT22;20374;49.474;10.944;2023-03-01T05:25:59;-3.80;99.90
34099;DHT22;20374;49.474;10.944;2023-03-01T05:28:26;-3.80;99.90
34099;DHT22;20374;49.474;10.944;2023-03-01T05:30:54;-3.80;99.90
34099;DHT22;20374;49.474;10.944;2023-03-01T05:33:20;-3.80;99.90
34099;DHT22;20374;49.474;10.944;2023-03-01T05:35:48;-3.90;99.90
34099;DHT22;20374;49.474;10.944;2023-03-01T05:38:15;-3.90;99.90
34099;DHT22;20374;49.474;10.944;2023-03-01T05:40:46;-3.80;99.90
34099;DHT22;20374;49.474;10.944;2023-03-01T05:43:13;-3.80;99.90
34099;DHT22;20374;49.474;10.944;2023-03-01T05:45:41;-3.80;99.90
34099;DHT22;20374;49.474;10.944;2023-03-01T05:48:08;-3.80;99.90
34099;DHT22;20374;49.474;10.944;2023-03-01T05:50:40;-3.80;99.90
34099;DHT22;20374;49.474;10.944;2023-03-01T05:53:13;-3.80;99.90
34099;DHT22;20374;49.474;10.944;2023-03-01T05:55:40;-3.80;99.90
34099;DHT22;20374;49.474;10.944;2023-03-01T05:58:12;-3.70;99.90
34099;DHT22;20374;49.474;10.944;2023-03-01T06:00:40;-3.70;99.90
34099;DHT22;20374;49.474;10.944;2023-03-01T06:03:06;-3.70;99.90
34099;DHT22;20374;49.474;10.944;2023-03-01T06:05:32;-3.60;99.90
34099;DHT22;20374;49.474;10.944;2023-03-01T06:08:02;-3.60;99.90
34099;DHT22;20374;49.474;10.944;2023-03-01T06:10:29;-3.70;99.90
34099;DHT22;20374;49.474;10.944;2023-03-01T06:12:55;-3.70;99.90
34099;DHT22;20374;49.474;10.944;2023-03-01T06:15:21;-3.60;99.90
34099;DHT22;20374;49.474;10.944;2023-03-01T06:17:47;-3.60;99.90
34099;DHT22;20374;49.474;10.944;2023-03-01T06:20:19;-3.60;99.90
34099;DHT22;20374;49.474;10.944;2023-03-01T06:22:46;-3.50;99.90
34099;DHT22;20374;49.474;10.944;2023-03-01T06:25:14;-3.50;99.90
34099;DHT22;20374;49.474;10.944;2023-03-01T06:27:41;-3.40;99.90
34099;DHT22;20374;49.474;10.944;2023-03-01T06:30:08;-3.40;99.90
34099;DHT22;20374;49.474;10.944;2023-03-01T06:32:36;-3.30;99.90
34099;DHT22;20374;49.474;10.944;2023-03-01T06:35:03;-3.20;99.90
34099;DHT22;20374;49.474;10.944;2023-03-01T06:37:30;-3.20;99.90
34099;DHT22;20374;49.474;10.944;2023-03-01T06:39:56;-3.10;99.90
34099;DHT22;20374;49.474;10.944;2023-03-01T06:42:21;-2.90;99.90
34099;DHT22;20374;49.474;10.944;2023-03-01T06:44:47;-2.30;99.90
34099;DHT22;20374;49.474;10.944;2023-03-01T06:47:13;-1.70;99.90
34099;DHT22;20374;49.474;10.944;2023-03-01T06:49:39;-1.20;99.90
34099;DHT22;20374;49.474;10.944;2023-03-01T06:52:05;-0.60;99.90
34099;DHT22;20374;49.474;10.944;2023-03-01T06:54:31;0.10;99.90
34099;DHT22;20374;49.474;10.944;2023-03-01T06:56:57;0.70;99.90
34099;DHT22;20374;49.474;10.944;2023-03-01T06:59:23;1.20;99.90
34099;DHT22;20374;49.474;10.944;2023-03-01T07:01:48;1.90;99.90
34099;DHT22;20374;49.474;10.944;2023-03-01T07:04:14;2.10;99.80
34099;DHT22;20374;49.474;10.944;2023-03-01T07:06:40;2.50;98.90
34099;DHT22;20374;49.474;10.944;2023-03-01T07:09:06;2.80;97.60
34099;DHT22;20374;49.474;10.944;2023-03-01T07:11:32;2.50;97.80
34099;DHT22;20374;49.474;10.944;2023-03-01T07:13:58;1.90;98.00
34099;DHT22;20374;49.474;10.944;2023-03-01T07:16:25;1.30;99.70
34099;DHT22;20374;49.474;10.944;2023-03-01T07:18:51;0.70;99.90
34099;DHT22;20374;49.474;10.944;2023-03-01T07:21:17;0.30;99.90
34099;DHT22;20374;49.474;10.944;2023-03-01T07:23:43;0.20;99.90
34099;DHT22;20374;49.474;10.944;2023-03-01T07:26:09;0.70;99.90
34099;DHT22;20374;49.474;10.944;2023-03-01T07:28:35;1.80;99.90
34099;DHT22;20374;49.474;10.944;2023-03-01T07:31:04;3.20;99.90
34099;DHT22;20374;49.474;10.944;2023-03-01T07:33:30;4.40;97.00
34099;DHT22;20374;49.474;10.944;2023-03-01T07:36:01;5.60;94.20
34099;DHT22;20374;49.474;10.944;2023-03-01T07:38:29;6.20;89.00
34099;DHT22;20374;49.474;10.944;2023-03-01T07:41:00;6.70;85.40
34099;DHT22;20374;49.474;10.944;2023-03-01T07:43:28;6.50;85.30
34099;DHT22;20374;49.474;10.944;2023-03-01T07:45:53;6.30;83.80
34099;DHT22;20374;49.474;10.944;2023-03-01T07:48:19;6.30;84.10
34099;DHT22;20374;49.474;10.944;2023-03-01T07:50:45;5.90;82.70
34099;DHT22;20374;49.474;10.944;2023-03-01T07:53:11;5.40;84.60
34099;DHT22;20374;49.474;10.944;2023-03-01T07:55:37;5.20;85.90
34099;DHT22;20374;49.474;10.944;2023-03-01T07:58:03;5.60;85.60
34099;DHT22;20374;49.474;10.944;2023-03-01T08:00:29;6.00;85.50
34099;DHT22;20374;49.474;10.944;2023-03-01T08:02:59;6.90;81.40
34099;DHT22;20374;49.474;10.944;2023-03-01T08:05:26;7.40;77.30
34099;DHT22;20374;49.474;10.944;2023-03-01T08:07:52;7.50;76.30
34099;DHT22;20374;49.474;10.944;2023-03-01T08:10:19;7.70;75.10
34099;DHT22;20374;49.474;10.944;2023-03-01T08:12:45;7.80;74.40
34099;DHT22;20374;49.474;10.944;2023-03-01T08:15:11;7.40;73.20
34099;DHT22;20374;49.474;10.944;2023-03-01T08:17:37;7.40;74.30
34099;DHT22;20374;49.474;10.944;2023-03-01T08:20:04;7.50;72.90
34099;DHT22;20374;49.474;10.944;2023-03-01T08:22:32;7.20;74.40
34099;DHT22;20374;49.474;10.944;2023-03-01T08:24:58;7.10;75.90
34099;DHT22;20374;49.474;10.944;2023-03-01T08:27:24;7.50;73.00
34099;DHT22;20374;49.474;10.944;2023-03-01T08:29:50;7.70;72.80
34099;DHT22;20374;49.474;10.944;2023-03-01T08:32:16;8.30;71.50
34099;DHT22;20374;49.474;10.944;2023-03-01T08:34:42;9.00;69.80
34099;DHT22;20374;49.474;10.944;2023-03-01T08:37:08;9.20;69.00
34099;DHT22;20374;49.474;10.944;2023-03-01T08:39:35;9.30;67.80
34099;DHT22;20374;49.474;10.944;2023-03-01T08:42:01;9.50;67.20
34099;DHT22;20374;49.474;10.944;2023-03-01T08:44:27;8.90;66.40
34099;DHT22;20374;49.474;10.944;2023-03-01T08:46:53;8.00;67.00
34099;DHT22;20374;49.474;10.944;2023-03-01T08:49:21;6.90;71.40
34099;DHT22;20374;49.474;10.944;2023-03-01T08:51:47;6.40;72.70
34099;DHT22;20374;49.474;10.944;2023-03-01T08:54:16;5.60;73.90
34099;DHT22;20374;49.474;10.944;2023-03-01T08:56:42;4.90;77.40
34099;DHT22;20374;49.474;10.944;2023-03-01T08:59:10;4.80;77.90
34099;DHT22;20374;49.474;10.944;2023-03-01T09:01:36;4.60;79.20
34099;DHT22;20374;49.474;10.944;2023-03-01T09:04:03;4.40;81.00
34099;DHT22;20374;49.474;10.944;2023-03-01T09:06:33;4.40;80.60
34099;DHT22;20374;49.474;10.944;2023-03-01T09:08:59;4.60;80.20
34099;DHT22;20374;49.474;10.944;2023-03-01T09:11:26;4.30;81.20
34099;DHT22;20374;49.474;10.944;2023-03-01T09:13:51;4.10;82.60
34099;DHT22;20374;49.474;10.944;2023-03-01T09:16:19;3.90;83.10
34099;DHT22;20374;49.474;10.944;2023-03-01T09:18:52;3.70;84.20
34099;DHT22;20374;49.474;10.944;2023-03-01T09:21:20;3.50;86.10
34099;DHT22;20374;49.474;10.944;2023-03-01T09:23:47;3.50;86.00
34099;DHT22;20374;49.474;10.944;2023-03-01T09:26:16;3.40;86.10
34099;DHT22;20374;49.474;10.944;2023-03-01T09:28:43;3.30;87.30
34099;DHT22;20374;49.474;10.944;2023-03-01T09:31:10;3.20;88.70
34099;DHT22;20374;49.474;10.944;2023-03-01T09:33:39;3.20;89.60
34099;DHT22;20374;49.474;10.944;2023-03-01T09:36:07;3.20;89.60
34099;DHT22;20374;49.474;10.944;2023-03-01T09:38:34;3.30;88.80
34099;DHT22;20374;49.474;10.944;2023-03-01T09:41:00;3.30;88.20
34099;DHT22;20374;49.474;10.944;2023-03-01T09:43:31;3.30;88.80
34099;DHT22;20374;49.474;10.944;2023-03-01T09:46:04;3.30;89.20
34099;DHT22;20374;49.474;10.944;2023-03-01T09:48:38;3.40;89.10
34099;DHT22;20374;49.474;10.944;2023-03-01T09:51:12;3.40;87.60
34099;DHT22;20374;49.474;10.944;2023-03-01T09:53:40;3.60;87.70
34099;DHT22;20374;49.474;10.944;2023-03-01T09:56:19;3.90;85.30
34099;DHT22;20374;49.474;10.944;2023-03-01T09:59:13;3.90;86.50
34099;DHT22;20374;49.474;10.944;2023-03-01T10:04:45;3.70;86.50
34099;DHT22;20374;49.474;10.944;2023-03-01T10:10:37;3.80;85.70
34099;DHT22;20374;49.474;10.944;2023-03-01T10:13:15;3.90;85.80
34099;DHT22;20374;49.474;10.944;2023-03-01T10:15:58;4.10;84.20
34099;DHT22;20374;49.474;10.944;2023-03-01T10:18:29;4.00;84.20
34099;DHT22;20374;49.474;10.944;2023-03-01T10:21:02;4.00;85.70
34099;DHT22;20374;49.474;10.944;2023-03-01T10:23:32;4.20;83.90
34099;DHT22;20374;49.474;10.944;2023-03-01T10:26:30;4.20;83.60
34099;DHT22;20374;49.474;10.944;2023-03-01T10:29:08;4.50;83.70
34099;DHT22;20374;49.474;10.944;2023-03-01T10:31:48;4.50;83.80
34099;DHT22;20374;49.474;10.944;2023-03-01T10:34:17;4.80;81.50
34099;DHT22;20374;49.474;10.944;2023-03-01T10:36:47;4.70;81.00
34099;DHT22;20374;49.474;10.944;2023-03-01T10:39:23;5.00;79.90
34099;DHT22;20374;49.474;10.944;2023-03-01T10:42:04;5.00;78.40
34099;DHT22;20374;49.474;10.944;2023-03-01T10:44:46;5.10;79.80
34099;DHT22;20374;49.474;10.944;2023-03-01T10:47:19;5.10;79.60
34099;DHT22;20374;49.474;10.944;2023-03-01T10:50:03;5.30;78.90
34099;DHT22;20374;49.474;10.944;2023-03-01T10:52:36;5.40;78.40
34099;DHT22;20374;49.474;10.944;2023-03-01T10:55:23;5.50;79.10
34099;DHT22;20374;49.474;10.944;2023-03-01T10:57:50;5.80;78.10
34099;DHT22;20374;49.474;10.944;2023-03-01T11:00:31;6.70;75.70
34099;DHT22;20374;49.474;10.944;2023-03-01T11:03:11;8.10;71.40
34099;DHT22;20374;49.474;10.944;2023-03-01T11:05:58;9.20;68.50
34099;DHT22;20374;49.474;10.944;2023-03-01T11:08:45;10.20;65.00
34099;DHT22;20374;49.474;10.944;2023-03-01T11:11:33;10.40;61.50
34099;DHT22;20374;49.474;10.944;2023-03-01T11:14:07;10.70;60.80
34099;DHT22;20374;49.474;10.944;2023-03-01T11:16:41;10.80;60.10
34099;DHT22;20374;49.474;10.944;2023-03-01T11:24:48;9.00;63.20
34099;DHT22;20374;49.474;10.944;2023-03-01T11:27:19;8.80;64.80
34099;DHT22;20374;49.474;10.944;2023-03-01T11:32:33;9.70;65.50
34099;DHT22;20374;49.474;10.944;2023-03-01T11:35:16;10.40;60.30
34099;DHT22;20374;49.474;10.944;2023-03-01T11:37:59;10.80;59.90
34099;DHT22;20374;49.474;10.944;2023-03-01T11:43:38;11.00;59.30
34099;DHT22;20374;49.474;10.944;2023-03-01T11:46:21;11.70;58.60
34099;DHT22;20374;49.474;10.944;2023-03-01T11:51:56;11.90;56.30
34099;DHT22;20374;49.474;10.944;2023-03-01T11:54:50;11.60;57.20
34099;DHT22;20374;49.474;10.944;2023-03-01T12:08:29;9.90;59.70
34099;DHT22;20374;49.474;10.944;2023-03-01T12:25:16;11.50;57.90
34099;DHT22;20374;49.474;10.944;2023-03-01T12:36:24;13.20;55.10
34099;DHT22;20374;49.474;10.944;2023-03-01T12:39:07;12.90;55.70
34099;DHT22;20374;49.474;10.944;2023-03-01T12:50:14;14.60;53.40
34099;DHT22;20374;49.474;10.944;2023-03-01T12:52:52;15.20;53.00
34099;DHT22;20374;49.474;10.944;2023-03-01T12:55:39;15.60;53.30
34099;DHT22;20374;49.474;10.944;2023-03-01T12:58:32;16.20;51.30
34099;DHT22;20374;49.474;10.944;2023-03-01T13:11:50;16.30;49.40
34099;DHT22;20374;49.474;10.944;2023-03-01T13:16:52;16.20;49.90
34099;DHT22;20374;49.474;10.944;2023-03-01T13:19:26;16.20;49.50
34099;DHT22;20374;49.474;10.944;2023-03-01T13:21:54;16.20;48.90
34099;DHT22;20374;49.474;10.944;2023-03-01T13:24:37;16.50;50.00
34099;DHT22;20374;49.474;10.944;2023-03-01T13:29:53;17.00;48.40
34099;DHT22;20374;49.474;10.944;2023-03-01T13:32:30;17.10;48.60
34099;DHT22;20374;49.474;10.944;2023-03-01T13:35:01;16.50;49.30
34099;DHT22;20374;49.474;10.944;2023-03-01T13:37:32;15.90;48.60
34099;DHT22;20374;49.474;10.944;2023-03-01T13:40:01;15.80;50.00
34099;DHT22;20374;49.474;10.944;2023-03-01T13:44:59;16.00;49.50
34099;DHT22;20374;49.474;10.944;2023-03-01T13:47:27;16.10;49.70
34099;DHT22;20374;49.474;10.944;2023-03-01T13:49:58;16.20;49.60
34099;DHT22;20374;49.474;10.944;2023-03-01T13:55:27;16.00;49.00
34099;DHT22;20374;49.474;10.944;2023-03-01T13:57:57;15.90;49.60
34099;DHT22;20374;49.474;10.944;2023-03-01T14:00:30;16.10;50.00
34099;DHT22;20374;49.474;10.944;2023-03-01T14:05:30;15.50;50.90
34099;DHT22;20374;49.474;10.944;2023-03-01T14:07:56;15.20;51.10
34099;DHT22;20374;49.474;10.944;2023-03-01T14:10:27;15.10;50.30
34099;DHT22;20374;49.474;10.944;2023-03-01T14:13:08;15.00;51.00
34099;DHT22;20374;49.474;10.944;2023-03-01T14:15:50;15.00;51.40
34099;DHT22;20374;49.474;10.944;2023-03-01T14:21:14;15.50;52.40
34099;DHT22;20374;49.474;10.944;2023-03-01T14:23:41;15.60;51.10
34099;DHT22;20374;49.474;10.944;2023-03-01T14:26:08;15.20;51.60
34099;DHT22;20374;49.474;10.944;2023-03-01T14:28:36;15.00;51.50
34099;DHT22;20374;49.474;10.944;2023-03-01T14:31:37;14.80;51.90
34099;DHT22;20374;49.474;10.944;2023-03-01T14:34:03;15.00;52.30
34099;DHT22;20374;49.474;10.944;2023-03-01T14:36:32;14.50;52.30
34099;DHT22;20374;49.474;10.944;2023-03-01T14:38:58;14.30;52.60
34099;DHT22;20374;49.474;10.944;2023-03-01T14:41:33;14.30;53.10
34099;DHT22;20374;49.474;10.944;2023-03-01T14:44:06;13.90;52.90
34099;DHT22;20374;49.474;10.944;2023-03-01T14:46:38;13.20;53.90
34099;DHT22;20374;49.474;10.944;2023-03-01T14:49:14;12.90;54.70
34099;DHT22;20374;49.474;10.944;2023-03-01T14:51:43;13.00;55.10
34099;DHT22;20374;49.474;10.944;2023-03-01T14:54:35;12.80;54.90
34099;DHT22;20374;49.474;10.944;2023-03-01T14:57:03;12.60;54.90
34099;DHT22;20374;49.474;10.944;2023-03-01T14:59:29;12.50;55.60
34099;DHT22;20374;49.474;10.944;2023-03-01T15:01:57;12.50;55.30
34099;DHT22;20374;49.474;10.944;2023-03-01T15:04:24;12.20;55.90
34099;DHT22;20374;49.474;10.944;2023-03-01T15:06:53;12.00;56.30
34099;DHT22;20374;49.474;10.944;2023-03-01T15:09:20;12.30;57.10
34099;DHT22;20374;49.474;10.944;2023-03-01T15:11:46;12.30;56.40
34099;DHT22;20374;49.474;10.944;2023-03-01T15:14:41;12.20;56.20
34099;DHT22;20374;49.474;10.944;2023-03-01T15:19:51;11.90;56.90
34099;DHT22;20374;49.474;10.944;2023-03-01T15:22:17;11.90;56.80
34099;DHT22;20374;49.474;10.944;2023-03-01T15:24:48;11.80;57.00
34099;DHT22;20374;49.474;10.944;2023-03-01T15:27:17;11.60;57.50
34099;DHT22;20374;49.474;10.944;2023-03-01T15:29:49;11.40;57.80
34099;DHT22;20374;49.474;10.944;2023-03-01T15:32:42;10.80;58.40
34099;DHT22;20374;49.474;10.944;2023-03-01T15:35:40;10.50;59.00
34099;DHT22;20374;49.474;10.944;2023-03-01T15:38:37;10.40;59.60
34099;DHT22;20374;49.474;10.944;2023-03-01T15:41:31;10.00;60.40
34099;DHT22;20374;49.474;10.944;2023-03-01T15:44:14;9.70;61.50
34099;DHT22;20374;49.474;10.944;2023-03-01T15:46:46;9.50;63.30
34099;DHT22;20374;49.474;10.944;2023-03-01T15:49:42;9.20;63.90
34099;DHT22;20374;49.474;10.944;2023-03-01T15:52:24;9.00;64.80
34099;DHT22;20374;49.474;10.944;2023-03-01T15:55:24;8.90;65.60
34099;DHT22;20374;49.474;10.944;2023-03-01T16:00:26;8.60;66.50
34099;DHT22;20374;49.474;10.944;2023-03-01T16:02:52;8.60;67.50
34099;DHT22;20374;49.474;10.944;2023-03-01T16:05:25;8.40;67.50
34099;DHT22;20374;49.474;10.944;2023-03-01T16:07:52;8.40;68.20
34099;DHT22;20374;49.474;10.944;2023-03-01T16:10:20;8.30;68.20
34099;DHT22;20374;49.474;10.944;2023-03-01T16:12:46;8.30;68.80
34099;DHT22;20374;49.474;10.944;2023-03-01T16:15:20;8.20;69.40
34099;DHT22;20374;49.474;10.944;2023-03-01T16:17:50;8.10;71.00
34099;DHT22;20374;49.474;10.944;2023-03-01T16:20:24;8.00;71.50
34099;DHT22;20374;49.474;10.944;2023-03-01T16:22:51;8.00;71.40
34099;DHT22;20374;49.474;10.944;2023-03-01T16:25:19;7.80;71.10
34099;DHT22;20374;49.474;10.944;2023-03-01T16:27:47;7.60;71.50
34099;DHT22;20374;49.474;10.944;2023-03-01T16:30:14;7.60;71.00
34099;DHT22;20374;49.474;10.944;2023-03-01T16:32:44;7.50;71.70
34099;DHT22;20374;49.474;10.944;2023-03-01T16:35:13;7.40;72.40
34099;DHT22;20374;49.474;10.944;2023-03-01T16:37:39;7.40;72.90
34099;DHT22;20374;49.474;10.944;2023-03-01T16:40:18;7.30;73.40
34099;DHT22;20374;49.474;10.944;2023-03-01T16:42:49;7.20;73.70
34099;DHT22;20374;49.474;10.944;2023-03-01T16:45:16;7.10;74.50
34099;DHT22;20374;49.474;10.944;2023-03-01T16:47:42;7.00;75.10
34099;DHT22;20374;49.474;10.944;2023-03-01T16:50:08;6.90;75.30
34099;DHT22;20374;49.474;10.944;2023-03-01T16:52:35;6.90;76.30
34099;DHT22;20374;49.474;10.944;2023-03-01T16:55:02;6.80;76.60
34099;DHT22;20374;49.474;10.944;2023-03-01T16:57:29;6.70;77.80
34099;DHT22;20374;49.474;10.944;2023-03-01T16:59:55;6.70;77.90
34099;DHT22;20374;49.474;10.944;2023-03-01T17:02:22;6.60;78.30
34099;DHT22;20374;49.474;10.944;2023-03-01T17:04:52;6.50;79.90
34099;DHT22;20374;49.474;10.944;2023-03-01T17:07:18;6.50;79.60
34099;DHT22;20374;49.474;10.944;2023-03-01T17:09:44;6.40;80.20
34099;DHT22;20374;49.474;10.944;2023-03-01T17:12:14;6.30;81.10
34099;DHT22;20374;49.474;10.944;2023-03-01T17:14:41;6.20;81.30
34099;DHT22;20374;49.474;10.944;2023-03-01T17:17:08;6.20;82.00
34099;DHT22;20374;49.474;10.944;2023-03-01T17:19:34;6.20;82.70
34099;DHT22;20374;49.474;10.944;2023-03-01T17:22:03;6.10;83.90
34099;DHT22;20374;49.474;10.944;2023-03-01T17:27:30;5.90;84.90
34099;DHT22;20374;49.474;10.944;2023-03-01T17:30:00;5.80;85.40
34099;DHT22;20374;49.474;10.944;2023-03-01T17:32:25;5.80;85.40
34099;DHT22;20374;49.474;10.944;2023-03-01T17:34:51;5.80;86.10